Time;durP1;ratioP1;P1;durP2;ratioP2;P2;SDS_P1;SDS_P2;PMS_P1;PMS_P2;Temp;Humidity;BMP_temperature;BMP_pressure;BME280_temperature;BME280_humidity;BME280_pressure;Samples;Min_cycle;Max_cycle;Signal;HPM_P1;HPM_P2
2022/07/02 00:01:31;;;;;;;;;;;19.50;55.20;;;;;;7366064;19;20011;-79
2022/07/02 00:04:06;;;;;;;5.80;1.73;;;19.50;55.20;;;;;;7365722;19;19914;-79
2022/07/02 00:06:38;;;;;;;5.55;1.50;;;19.50;55.00;;;;;;7367322;19;20014;-79
2022/07/02 00:09:06;;;;;;;;;;;19.50;55.00;;;;;;7367216;19;20081;-79
2022/07/02 00:11:36;;;;;;;4.97;1.90;;;19.50;55.20;;;;;;7384676;19;19926;-79
2022/07/02 00:14:08;;;;;;;4.45;1.50;;;19.50;55.20;;;;;;7366818;19;20014;-79
2022/07/02 00:16:37;;;;;;;8.95;1.83;;;19.40;55.30;;;;;;7367468;19;20577;-79
2022/07/02 00:19:07;;;;;;;5.53;1.92;;;19.40;55.30;;;;;;7373924;19;20102;-79
2022/07/02 00:21:39;;;;;;;5.53;2.00;;;19.40;55.30;;;;;;7374780;19;20078;-79
2022/07/02 00:24:09;;;;;;;4.93;1.40;;;19.40;55.20;;;;;;7374189;19;20086;-79
2022/07/02 00:26:41;;;;;;;5.13;1.63;;;19.40;55.10;;;;;;7394363;19;20014;-79
2022/07/02 00:29:23;;;;;;;9.18;1.77;;;19.40;55.00;;;;;;7372849;19;20013;-79
2022/07/02 00:31:52;;;;;;;5.60;1.90;;;19.30;55.10;;;;;;7373927;19;20013;-79
2022/07/02 00:34:22;;;;;;;3.60;1.65;;;19.40;55.10;;;;;;7372501;19;20013;-79
2022/07/02 00:36:52;;;;;;;3.70;1.70;;;19.30;55.20;;;;;;7373438;19;20106;-79
2022/07/02 00:39:21;;;;;;;5.95;1.70;;;19.30;55.20;;;;;;7373999;19;20090;-79
2022/07/02 00:41:51;;;;;;;2.58;1.40;;;19.30;55.10;;;;;;7394511;19;20014;-79
2022/07/02 00:44:23;;;;;;;3.58;1.58;;;19.30;55.10;;;;;;7372584;19;20015;-79
2022/07/02 00:46:52;;;;;;;3.20;1.70;;;19.30;54.90;;;;;;7371840;19;20431;-79
2022/07/02 00:49:21;;;;;;;5.05;1.50;;;19.20;55.00;;;;;;7373537;19;20082;-79
2022/07/02 00:51:50;;;;;;;4.70;1.70;;;19.20;55.20;;;;;;7373928;19;20403;-79
2022/07/02 00:54:19;;;;;;;6.03;1.70;;;19.10;55.20;;;;;;7372932;19;20371;-79
2022/07/02 00:56:49;;;;;;;4.15;1.52;;;19.10;55.20;;;;;;7395606;19;20030;-79
2022/07/02 00:59:18;;;;;;;4.65;1.60;;;19.10;55.30;;;;;;7371538;19;20380;-79
2022/07/02 01:01:49;;;;;;;7.30;1.67;;;19.10;55.40;;;;;;7371277;19;20130;-79
2022/07/02 01:04:19;;;;;;;6.43;1.50;;;19.00;55.30;;;;;;7372295;19;20011;-79
2022/07/02 01:06:48;;;;;;;2.88;1.50;;;19.00;55.10;;;;;;7372289;19;20354;-79
2022/07/02 01:12:02;;;;;;;5.40;1.60;;;18.90;55.80;;;;;;7375569;19;20022;-78
2022/07/02 01:14:31;;;;;;;6.47;1.73;;;18.80;56.10;;;;;;7394593;19;20332;-80
2022/07/02 01:17:02;;;;;;;2.97;1.30;;;18.80;56.20;;;;;;7370677;19;20018;-79
2022/07/02 01:19:31;;;;;;;2.83;1.15;;;18.70;56.10;;;;;;7371454;19;20565;-79
2022/07/02 01:22:18;;;;;;;2.83;1.48;;;18.80;56.20;;;;;;7372192;19;20104;-80
2022/07/02 01:24:49;;;;;;;4.70;1.70;;;18.80;56.10;;;;;;7371934;19;20379;-80
2022/07/02 01:27:22;;;;;;;3.90;1.60;;;18.80;55.90;;;;;;7372739;19;20053;-80
2022/07/02 01:29:51;;;;;;;2.30;1.15;;;18.80;55.90;;;;;;7394988;19;20810;-79
2022/07/02 01:32:20;;;;;;;6.15;1.50;;;18.70;56.00;;;;;;7371047;19;20018;-80
2022/07/02 01:34:51;;;;;;;2.92;1.70;;;18.70;55.90;;;;;;7370511;19;20481;-79
2022/07/02 01:37:24;;;;;;;2.63;1.40;;;18.70;55.90;;;;;;7370513;19;20081;-79
2022/07/02 01:39:53;;;;;;;6.35;3.30;;;18.70;55.90;;;;;;7372570;19;20018;-79
2022/07/02 01:42:21;;;;;;;3.75;2.00;;;18.70;55.80;;;;;;7371711;19;20022;-79
2022/07/02 01:44:51;;;;;;;5.90;1.27;;;18.70;55.70;;;;;;7390661;19;20066;-79
2022/07/02 01:47:20;;;;;;;5.30;1.23;;;18.70;55.50;;;;;;7370555;19;20018;-80
2022/07/02 01:49:49;;;;;;;3.05;1.20;;;18.60;55.50;;;;;;7370671;19;20014;-79
2022/07/02 01:52:18;;;;;;;3.25;1.38;;;18.60;55.70;;;;;;7370458;19;20519;-79
2022/07/02 01:54:50;;;;;;;4.72;1.30;;;18.60;55.60;;;;;;7368580;19;20506;-79
2022/07/02 01:57:18;;;;;;;4.95;1.25;;;18.60;55.50;;;;;;7371317;19;20018;-78
2022/07/02 01:59:47;;;;;;;3.33;1.30;;;18.60;55.20;;;;;;7391886;19;20394;-79
2022/07/02 02:02:16;;;;;;;2.90;1.40;;;18.60;55.20;;;;;;7369677;19;20006;-79
2022/07/02 02:04:45;;;;;;;5.07;1.17;;;18.50;55.10;;;;;;7371000;19;20080;-79
2022/07/02 02:07:14;;;;;;;4.40;1.30;;;18.50;55.10;;;;;;7371554;19;20078;-80
2022/07/02 02:09:42;;;;;;;3.17;1.58;;;18.50;55.10;;;;;;7371464;19;20065;-79
2022/07/02 02:12:14;;;;;;;4.85;1.65;;;18.50;55.30;;;;;;7371742;19;20010;-79
2022/07/02 02:14:42;;;;;;;;;;;18.40;55.50;;;;;;7391922;19;20038;-79
2022/07/02 02:17:11;;;;;;;4.28;1.40;;;18.40;55.40;;;;;;7368722;19;20362;-79
2022/07/02 02:19:40;;;;;;;4.15;1.20;;;18.40;55.40;;;;;;7370306;19;20532;-79
2022/07/02 02:22:08;;;;;;;3.13;1.20;;;18.50;55.40;;;;;;7371898;19;20010;-79
2022/07/02 02:24:37;;;;;;;2.78;1.30;;;18.40;55.40;;;;;;7370420;19;20033;-79
2022/07/02 02:27:06;;;;;;;2.85;1.30;;;18.50;55.40;;;;;;7370629;19;20332;-78
2022/07/02 02:29:37;;;;;;;4.00;1.42;;;18.40;55.20;;;;;;7390381;19;20160;-79
2022/07/02 02:32:07;;;;;;;2.63;1.40;;;18.40;55.30;;;;;;7368841;19;20070;-79
2022/07/02 02:34:36;;;;;;;3.75;1.52;;;18.40;55.40;;;;;;7370263;19;20010;-79
2022/07/02 02:37:05;;;;;;;5.57;1.30;;;18.30;55.50;;;;;;7368834;19;20010;-79
2022/07/02 02:39:34;;;;;;;1.77;1.40;;;18.30;55.80;;;;;;7370757;19;20010;-78
2022/07/02 02:42:03;;;;;;;3.70;1.33;;;18.20;55.80;;;;;;7367434;19;20038;-78
2022/07/02 02:44:31;;;;;;;2.40;1.30;;;18.10;56.10;;;;;;7391716;19;20010;-79
2022/07/02 02:47:03;;;;;;;2.20;1.50;;;18.00;57.00;;;;;;7371881;19;20035;-79
2022/07/02 02:49:31;;;;;;;2.88;1.10;;;17.90;56.60;;;;;;7372891;19;20027;-80
2022/07/02 02:52:00;;;;;;;2.78;1.40;;;17.90;56.70;;;;;;7369479;19;20028;-79
2022/07/02 02:54:29;;;;;;;2.53;1.50;;;17.80;56.90;;;;;;7370530;19;20022;-79
2022/07/02 02:56:59;;;;;;;2.40;1.48;;;17.70;57.60;;;;;;7388445;19;20014;-79
2022/07/02 02:59:27;;;;;;;5.32;1.40;;;17.70;57.00;;;;;;7369778;19;20599;-79
2022/07/02 03:01:56;;;;;;;3.42;1.50;;;17.70;57.00;;;;;;7367754;19;20441;-79
2022/07/02 03:04:27;;;;;;;1.45;1.20;;;17.60;56.80;;;;;;7367531;19;20454;-79
2022/07/02 03:06:56;;;;;;;2.55;1.25;;;17.60;57.00;;;;;;7369317;19;20073;-79
2022/07/02 03:09:25;;;;;;;2.90;1.58;;;17.60;57.00;;;;;;7368194;19;20010;-79
2022/07/02 03:11:54;;;;;;;3.40;1.70;;;17.60;57.00;;;;;;7387837;19;20023;-79
2022/07/02 03:14:22;;;;;;;4.47;1.73;;;17.70;56.90;;;;;;7367764;19;20022;-79
2022/07/02 03:16:51;;;;;;;5.18;1.65;;;17.70;57.30;;;;;;7365869;19;20407;-79
2022/07/02 03:19:20;;;;;;;4.00;1.52;;;17.70;56.50;;;;;;7369408;19;20629;-80
2022/07/02 03:21:51;;;;;;;3.33;1.30;;;17.70;56.30;;;;;;7367978;19;20016;-79
2022/07/02 03:24:20;;;;;;;3.55;1.25;;;17.70;56.40;;;;;;7369781;19;20007;-79
2022/07/02 03:26:48;;;;;;;1.45;1.00;;;17.70;56.30;;;;;;7389635;19;20097;-79
2022/07/02 03:29:17;;;;;;;1.73;1.15;;;17.70;56.10;;;;;;7367722;19;20344;-79
2022/07/02 03:31:46;;;;;;;1.67;1.00;;;17.70;56.10;;;;;;7368182;19;20024;-79
2022/07/02 03:34:15;;;;;;;4.72;1.10;;;17.70;56.20;;;;;;7368518;19;20461;-79
2022/07/02 03:36:43;;;;;;;2.03;1.20;;;17.70;56.40;;;;;;7369474;19;20021;-79
2022/07/02 03:39:15;;;;;;;2.67;1.23;;;17.70;56.50;;;;;;7367391;19;20038;-79
2022/07/02 03:41:43;;;;;;;2.45;1.38;;;17.70;56.30;;;;;;7391146;19;20577;-80
2022/07/02 03:44:12;;;;;;;3.33;1.50;;;17.70;56.30;;;;;;7368314;19;20006;-80
2022/07/02 03:46:41;;;;;;;1.85;1.30;;;17.70;56.20;;;;;;7366751;19;20455;-79
2022/07/02 03:49:09;;;;;;;3.13;1.20;;;17.70;56.20;;;;;;7369280;19;20098;-79
2022/07/02 03:51:38;;;;;;;4.03;1.17;;;17.60;56.30;;;;;;7369031;19;20010;-79
2022/07/02 03:54:07;;;;;;;5.22;1.23;;;17.70;56.40;;;;;;7368456;19;20507;-79
2022/07/02 03:56:38;;;;;;;6.18;1.85;;;17.70;56.10;;;;;;7387080;19;20438;-79
2022/07/02 03:59:07;;;;;;;3.47;1.48;;;17.70;56.00;;;;;;7366899;19;20060;-79
2022/07/02 04:01:36;;;;;;;3.60;1.30;;;17.70;56.10;;;;;;7366692;19;20137;-79
2022/07/02 04:04:04;;;;;;;2.45;1.20;;;17.70;56.10;;;;;;7365081;19;20018;-79
2022/07/02 04:06:33;;;;;;;3.47;1.70;;;17.80;56.00;;;;;;7366871;19;20341;-79
2022/07/02 04:09:02;;;;;;;4.10;2.00;;;17.80;55.70;;;;;;7367145;19;20014;-79
2022/07/02 04:11:30;;;;;;;4.53;2.03;;;17.70;55.70;;;;;;7389231;19;20122;-79
2022/07/02 04:14:02;;;;;;;5.88;1.73;;;17.80;55.80;;;;;;7367381;19;20094;-79
2022/07/02 04:16:31;;;;;;;3.05;1.50;;;17.80;55.60;;;;;;7366583;19;20039;-79
2022/07/02 04:19:00;;;;;;;2.75;1.23;;;17.80;55.60;;;;;;7367080;19;20014;-79
2022/07/02 04:21:28;;;;;;;4.45;1.38;;;17.70;55.80;;;;;;7367387;19;20014;-80
2022/07/02 04:23:58;;;;;;;5.63;1.40;;;17.70;55.70;;;;;;7390379;19;20123;-79
2022/07/02 04:26:26;;;;;;;5.53;1.60;;;17.70;55.90;;;;;;7368555;19;20074;-79
2022/07/02 04:28:55;;;;;;;3.55;1.80;;;17.60;56.00;;;;;;7368362;19;20082;-80
2022/07/02 04:31:26;;;;;;;2.05;1.40;;;17.60;56.20;;;;;;7367512;19;20049;-79
2022/07/02 04:33:55;;;;;;;4.32;1.65;;;17.50;56.30;;;;;;7369220;19;20014;-79
2022/07/02 04:36:24;;;;;;;7.88;1.35;;;17.50;56.60;;;;;;7365851;19;20010;-80
2022/07/02 04:38:52;;;;;;;3.15;1.50;;;17.50;56.80;;;;;;7388700;19;20055;-79
2022/07/02 04:41:21;;;;;;;3.15;1.20;;;17.50;56.90;;;;;;7368837;19;20035;-79
2022/07/02 04:43:50;;;;;;;3.78;1.63;;;17.40;57.20;;;;;;7367465;19;20070;-79
2022/07/02 04:46:18;;;;;;;5.03;1.30;;;17.40;57.40;;;;;;7365978;19;20474;-79
2022/07/02 04:48:50;;;;;;;6.72;1.60;;;17.40;57.60;;;;;;7365213;19;20462;-79
2022/07/02 04:51:18;;;;;;;2.70;1.30;;;17.40;57.60;;;;;;7365029;19;20762;-79
2022/07/02 04:53:47;;;;;;;6.38;1.50;;;17.40;57.70;;;;;;7387595;19;20018;-79
2022/07/02 04:56:16;;;;;;;4.05;1.42;;;17.50;57.80;;;;;;7363955;19;20011;-79
2022/07/02 04:58:44;;;;;;;1.30;1.20;;;17.50;57.60;;;;;;7364650;19;20029;-79
2022/07/02 05:01:13;;;;;;;4.22;1.30;;;17.50;57.70;;;;;;7364605;19;20007;-79
2022/07/02 05:03:42;;;;;;;4.72;1.17;;;17.50;58.00;;;;;;7366390;19;20114;-79
2022/07/02 05:06:13;;;;;;;2.92;1.30;;;17.60;58.20;;;;;;7370016;19;20029;-79
2022/07/02 05:08:42;;;;;;;3.03;1.30;;;17.60;58.00;;;;;;7394678;19;20110;-79
2022/07/02 05:11:11;;;;;;;5.18;1.65;;;17.70;57.90;;;;;;7372812;19;20018;-80
2022/07/02 05:13:42;;;;;;;2.22;1.48;;;17.70;57.90;;;;;;7373028;19;20070;-80
2022/07/02 05:16:11;;;;;;;5.63;1.50;;;17.80;57.90;;;;;;7371688;19;20028;-79
2022/07/02 05:18:40;;;;;;;3.75;1.23;;;17.90;57.90;;;;;;7370161;19;20074;-79
2022/07/02 05:21:09;;;;;;;1.45;1.10;;;17.90;57.90;;;;;;7369371;19;20007;-79
2022/07/02 05:23:40;;;;;;;2.15;1.50;;;18.00;57.70;;;;;;7394013;19;20013;-79
2022/07/02 05:26:09;;;;;;;4.68;1.80;;;18.00;57.60;;;;;;7371849;19;20018;-79
2022/07/02 05:28:37;;;;;;;4.93;1.50;;;18.10;57.80;;;;;;7372379;19;20013;-80
2022/07/02 05:31:06;;;;;;;3.33;1.40;;;18.10;57.70;;;;;;7372383;19;20025;-81
2022/07/02 05:33:35;;;;;;;3.92;1.88;;;18.20;57.80;;;;;;7371286;19;20083;-79
2022/07/02 05:36:04;;;;;;;6.45;1.67;;;18.20;57.80;;;;;;7369217;19;20078;-79
2022/07/02 05:38:32;;;;;;;3.72;1.75;;;18.20;58.00;;;;;;7393143;19;20018;-79
2022/07/02 05:41:04;;;;;;;3.70;1.50;;;18.30;58.00;;;;;;7370861;19;20090;-79
2022/07/02 05:43:32;;;;;;;2.40;1.50;;;18.30;57.90;;;;;;7371324;19;20090;-78
2022/07/02 05:46:01;;;;;;;3.15;1.40;;;18.30;58.10;;;;;;7374243;19;20010;-79
2022/07/02 05:48:30;;;;;;;2.45;1.50;;;18.40;58.60;;;;;;7373505;19;20006;-78
2022/07/02 05:50:59;;;;;;;7.13;1.80;;;18.40;58.20;;;;;;7393449;19;20022;-79
2022/07/02 05:53:28;;;;;;;3.58;1.77;;;18.40;58.20;;;;;;7370773;19;20014;-81
2022/07/02 05:55:57;;;;;;;2.47;1.52;;;18.50;58.30;;;;;;7371573;19;20643;-80
2022/07/02 05:58:28;;;;;;;3.60;1.48;;;18.60;58.20;;;;;;7371624;19;20515;-83
2022/07/02 06:00:57;;;;;;;4.10;1.85;;;18.60;58.10;;;;;;7372216;19;20010;-84
2022/07/02 06:03:26;;;;;;;5.03;1.67;;;18.60;58.10;;;;;;7371122;19;20018;-83
2022/07/02 06:08:35;;;;;;;3.40;1.85;;;18.70;57.90;;;;;;7372627;19;20019;-84
2022/07/02 06:11:04;;;;;;;9.57;1.73;;;18.80;58.10;;;;;;7373926;19;20018;-83
2022/07/02 06:13:36;;;;;;;3.03;1.50;;;18.90;58.10;;;;;;7371546;19;20015;-84
2022/07/02 06:16:04;;;;;;;;;;;19.00;58.10;;;;;;7371366;19;20093;-82
2022/07/02 06:18:33;;;;;;;8.18;2.10;;;19.10;58.00;;;;;;7371515;19;19985;-83
2022/07/02 06:21:01;;;;;;;4.63;1.85;;;19.10;57.80;;;;;;7371808;19;20010;-82
2022/07/02 06:23:30;;;;;;;3.15;1.70;;;19.20;57.80;;;;;;7394943;19;20456;-82
2022/07/02 06:25:59;;;;;;;5.50;2.05;;;19.30;57.70;;;;;;7375075;19;20405;-83
2022/07/02 06:28:28;;;;;;;5.72;2.38;;;19.30;57.60;;;;;;7372462;19;20309;-82
2022/07/02 06:30:59;;;;;;;4.90;2.08;;;19.30;57.60;;;;;;7372857;19;20010;-83
2022/07/02 06:33:28;;;;;;;6.57;2.35;;;19.40;57.50;;;;;;7369384;19;20044;-82
2022/07/02 06:35:56;;;;;;;2.53;1.70;;;19.50;57.20;;;;;;7392663;19;20023;-83
2022/07/02 06:38:25;;;;;;;3.53;1.50;;;19.50;56.90;;;;;;7368366;19;20102;-82
2022/07/02 06:40:55;;;;;;;5.00;1.60;;;19.60;56.60;;;;;;7370399;19;20019;-83
2022/07/02 06:43:25;;;;;;;1.92;1.00;;;19.60;56.20;;;;;;7372479;19;20020;-84
2022/07/02 06:45:54;;;;;;;3.63;1.30;;;19.70;55.90;;;;;;7374321;19;20015;-83
2022/07/02 06:48:26;;;;;;;1.85;1.30;;;19.80;55.80;;;;;;7370316;19;20067;-83
2022/07/02 06:50:55;;;;;;;3.00;1.52;;;19.80;55.60;;;;;;7392208;19;20025;-83
2022/07/02 06:53:23;;;;;;;3.10;1.60;;;19.90;55.30;;;;;;7368630;19;20014;-83
2022/07/02 06:55:53;;;;;;;3.55;1.23;;;19.90;55.30;;;;;;7371467;19;20074;-84
2022/07/02 06:58:21;;;;;;;1.48;0.82;;;19.90;55.20;;;;;;7371145;19;20011;-83
2022/07/02 07:00:50;;;;;;;2.47;1.10;;;20.00;54.80;;;;;;7369404;19;20010;-83
2022/07/02 07:03:19;;;;;;;1.77;0.90;;;20.00;54.30;;;;;;7373727;19;20106;-83
2022/07/02 07:05:52;;;;;;;5.28;0.95;;;20.00;53.90;;;;;;7395419;19;20085;-83
2022/07/02 07:08:20;;;;;;;2.90;0.90;;;20.10;53.60;;;;;;7375324;19;20011;-83
2022/07/02 07:10:49;;;;;;;3.17;1.15;;;20.20;53.60;;;;;;7375237;19;20024;-83
2022/07/02 07:13:18;;;;;;;6.82;1.05;;;20.20;53.40;;;;;;7372991;19;20740;-82
2022/07/02 07:15:46;;;;;;;4.35;1.00;;;20.20;53.10;;;;;;7369397;19;20471;-83
2022/07/02 07:18:15;;;;;;;3.78;0.80;;;20.30;52.90;;;;;;7369038;19;20021;-84
2022/07/02 07:20:46;;;;;;;2.97;1.10;;;20.30;52.60;;;;;;7390999;19;20021;-83
2022/07/02 07:23:17;;;;;;;1.00;0.82;;;20.40;52.50;;;;;;7369145;19;20339;-83
2022/07/02 07:25:45;;;;;;;2.20;0.70;;;20.40;52.50;;;;;;7368971;19;20397;-83
2022/07/02 07:28:14;;;;;;;2.88;0.70;;;20.50;52.00;;;;;;7369769;19;20339;-84
2022/07/02 07:30:43;;;;;;;1.38;0.70;;;20.50;51.80;;;;;;7371188;19;20487;-83
2022/07/02 07:33:12;;;;;;;2.03;0.80;;;20.50;51.50;;;;;;7369380;19;20129;-83
2022/07/02 07:35:41;;;;;;;4.03;0.93;;;20.50;51.50;;;;;;7391959;19;20019;-83
2022/07/02 07:38:10;;;;;;;6.28;1.05;;;20.50;51.40;;;;;;7367089;19;20006;-83
2022/07/02 07:40:41;;;;;;;1.92;0.85;;;20.60;51.10;;;;;;7367911;19;20014;-83
2022/07/02 07:43:09;;;;;;;;;;;20.60;50.90;;;;;;7369011;19;20078;-83
2022/07/02 07:45:38;;;;;;;1.67;0.90;;;20.70;50.80;;;;;;7368135;19;19918;-83
2022/07/02 07:48:07;;;;;;;3.47;0.93;;;20.60;51.40;;;;;;7368961;19;20018;-83
2022/07/02 07:50:36;;;;;;;2.75;0.82;;;20.60;50.70;;;;;;7390493;19;20081;-83
2022/07/02 07:53:05;;;;;;;2.72;0.95;;;20.70;50.80;;;;;;7369256;19;20033;-83
2022/07/02 07:55:33;;;;;;;4.60;1.20;;;20.70;50.70;;;;;;7369451;19;20023;-84
2022/07/02 07:58:05;;;;;;;2.47;0.70;;;20.70;51.50;;;;;;7368183;19;20026;-83
2022/07/02 08:00:33;;;;;;;;;;;20.70;51.10;;;;;;7370019;19;20028;-84
2022/07/02 08:03:02;;;;;;;3.78;0.77;;;20.90;50.10;;;;;;7366678;19;19978;-82
2022/07/02 08:05:30;;;;;;;2.72;0.70;;;20.70;49.70;;;;;;7391531;19;20006;-83
2022/07/02 08:07:59;;;;;;;3.92;1.35;;;20.80;50.20;;;;;;7367813;19;20018;-84
2022/07/02 08:10:28;;;;;;;1.30;1.08;;;20.80;50.00;;;;;;7368929;19;20078;-84
2022/07/02 08:12:57;;;;;;;3.05;1.10;;;20.90;49.80;;;;;;7370185;19;20054;-86
2022/07/02 08:15:29;;;;;;;4.05;1.00;;;20.90;49.90;;;;;;7366534;19;20094;-81
2022/07/02 08:17:58;;;;;;;1.60;0.73;;;21.00;50.20;;;;;;7388408;19;20038;-81
2022/07/02 08:20:27;;;;;;;6.55;1.67;;;21.00;49.70;;;;;;7369260;19;20102;-82
2022/07/02 08:22:56;;;;;;;3.78;1.58;;;21.00;50.60;;;;;;7367008;19;20094;-81
2022/07/02 08:25:24;;;;;;;2.85;1.00;;;21.10;50.20;;;;;;7368138;19;20006;-81
2022/07/02 08:27:53;;;;;;;1.88;1.00;;;21.10;50.20;;;;;;7368444;19;20015;-81
2022/07/02 08:30:22;;;;;;;1.77;0.80;;;21.10;50.20;;;;;;7368860;19;20039;-81
2022/07/02 08:32:53;;;;;;;3.38;0.82;;;21.20;50.10;;;;;;7392136;19;20097;-81
2022/07/02 08:35:22;;;;;;;1.58;0.80;;;21.20;48.60;;;;;;7368587;19;20029;-80
2022/07/02 08:37:51;;;;;;;3.30;1.10;;;21.20;48.70;;;;;;7367883;19;20017;-80
2022/07/02 08:40:24;;;;;;;4.05;0.90;;;21.30;48.90;;;;;;7373882;19;20017;-80
2022/07/02 08:42:55;;;;;;;2.05;0.60;;;21.30;49.00;;;;;;7374383;19;20045;-80
2022/07/02 08:45:25;;;;;;;1.77;0.70;;;21.30;48.60;;;;;;7372013;19;20086;-80
2022/07/02 08:47:58;;;;;;;2.53;0.73;;;21.30;48.60;;;;;;7395064;19;20271;-81
2022/07/02 08:50:27;;;;;;;2.20;0.90;;;21.40;48.40;;;;;;7372882;19;20616;-80
2022/07/02 08:52:56;;;;;;;5.13;0.82;;;21.40;48.50;;;;;;7371471;19;20192;-81
2022/07/02 08:55:25;;;;;;;2.40;0.60;;;21.40;47.90;;;;;;7373791;19;20017;-81
2022/07/02 08:57:54;;;;;;;3.85;0.70;;;21.40;46.60;;;;;;7374976;19;20823;-80
2022/07/02 09:00:24;;;;;;;2.17;0.60;;;21.40;47.20;;;;;;7370766;19;20022;-80
2022/07/02 09:02:58;;;;;;;2.10;0.50;;;21.30;46.50;;;;;;7394407;19;20573;-80
2022/07/02 09:05:28;;;;;;;5.13;0.70;;;21.10;46.70;;;;;;7371946;19;20244;-80
2022/07/02 09:07:58;;;;;;;2.47;0.43;;;21.20;46.90;;;;;;7371823;19;20093;-81
2022/07/02 09:10:27;;;;;;;1.67;0.63;;;21.30;46.40;;;;;;7373133;19;20018;-80
2022/07/02 09:12:57;;;;;;;1.52;0.60;;;21.30;46.30;;;;;;7373674;19;20085;-80
2022/07/02 09:15:26;;;;;;;2.38;0.70;;;21.40;46.30;;;;;;7373752;19;20018;-80
2022/07/02 09:17:58;;;;;;;2.25;0.60;;;21.50;46.70;;;;;;7397060;19;20066;-80
2022/07/02 09:20:27;;;;;;;3.78;0.57;;;21.60;47.00;;;;;;7371693;19;20031;-81
2022/07/02 09:22:59;;;;;;;1.00;0.60;;;21.60;47.50;;;;;;7373026;19;20017;-80
2022/07/02 09:25:29;;;;;;;2.42;0.50;;;21.70;46.80;;;;;;7374846;19;20011;-81
2022/07/02 09:28:03;;;;;;;2.42;0.50;;;21.70;45.90;;;;;;7369592;19;20017;-80
2022/07/02 09:30:33;;;;;;;1.77;0.52;;;21.70;46.00;;;;;;7372627;19;20010;-80
2022/07/02 09:35:46;;;;;;;2.95;0.80;;;21.80;45.50;;;;;;7396945;19;20105;-81
2022/07/02 09:38:14;;;;;;;1.50;0.50;;;21.80;45.40;;;;;;7370977;19;20336;-82
2022/07/02 09:40:53;;;;;;;6.15;0.85;;;21.90;45.40;;;;;;7373263;19;20006;-82
2022/07/02 09:43:29;;;;;;;2.10;0.68;;;21.90;45.70;;;;;;7377833;19;20639;-82
2022/07/02 09:45:59;;;;;;;1.98;0.60;;;22.00;45.60;;;;;;7372718;19;20017;-80
2022/07/02 09:48:31;;;;;;;2.03;0.88;;;22.00;45.30;;;;;;7375797;19;20017;-78
2022/07/02 09:51:06;;;;;;;1.95;0.50;;;22.00;45.70;;;;;;7393414;19;20021;-80
2022/07/02 09:53:35;;;;;;;3.55;0.80;;;22.00;46.10;;;;;;7374954;19;20320;-79
2022/07/02 09:56:07;;;;;;;3.65;0.63;;;22.00;46.00;;;;;;7367648;19;20014;-80
2022/07/02 09:58:36;;;;;;;3.15;0.63;;;22.10;45.30;;;;;;7367949;19;20021;-81
2022/07/02 10:01:06;;;;;;;6.43;1.20;;;22.10;45.40;;;;;;7370977;19;20015;-80
2022/07/02 10:03:48;;;;;;;1.05;0.65;;;22.20;45.50;;;;;;7368858;19;20670;-79
2022/07/02 10:06:18;;;;;;;3.70;0.60;;;22.20;45.00;;;;;;7369254;19;20093;-80
2022/07/02 10:08:47;;;;;;;3.38;0.80;;;22.30;45.20;;;;;;7391807;19;20015;-80
2022/07/02 10:11:17;;;;;;;1.67;0.80;;;22.30;45.20;;;;;;7369552;19;20468;-79
2022/07/02 10:13:46;;;;;;;2.72;0.80;;;22.10;44.40;;;;;;7369423;19;20018;-79
2022/07/02 10:16:17;;;;;;;3.17;1.02;;;22.10;44.50;;;;;;7368402;19;20023;-79
2022/07/02 10:18:50;;;;;;;3.08;0.82;;;22.10;45.20;;;;;;7369928;19;20043;-80
2022/07/02 10:21:19;;;;;;;3.22;0.90;;;22.20;44.80;;;;;;7366682;19;20031;-79
2022/07/02 10:23:49;;;;;;;1.20;0.70;;;22.20;44.70;;;;;;7388315;19;20108;-81
2022/07/02 10:26:18;;;;;;;0.82;0.80;;;22.30;44.30;;;;;;7371251;19;20096;-81
2022/07/02 10:28:47;;;;;;;4.38;0.90;;;22.30;44.50;;;;;;7371131;19;20010;-82
2022/07/02 10:31:20;;;;;;;1.13;0.80;;;22.40;44.90;;;;;;7372705;19;20387;-81
2022/07/02 10:33:57;;;;;;;2.42;0.90;;;22.40;44.30;;;;;;7370820;19;20038;-81
2022/07/02 10:36:27;;;;;;;1.55;1.02;;;22.40;44.30;;;;;;7369224;19;20010;-81
2022/07/02 10:39:01;;;;;;;2.85;1.02;;;22.50;44.30;;;;;;7391207;19;20017;-81
2022/07/02 10:41:37;;;;;;;4.30;0.80;;;22.60;43.70;;;;;;7372311;19;20010;-85
2022/07/02 10:44:07;;;;;;;1.50;0.82;;;22.60;43.80;;;;;;7372656;19;20492;-83
2022/07/02 10:46:39;;;;;;;1.70;0.75;;;22.70;44.00;;;;;;7374063;19;20031;-84
2022/07/02 10:49:10;;;;;;;2.75;0.70;;;22.70;42.30;;;;;;7375157;19;20018;-81
2022/07/02 10:51:39;;;;;;;3.85;1.02;;;22.70;43.00;;;;;;7373926;19;20110;-82
2022/07/02 10:54:10;;;;;;;3.05;0.90;;;22.80;43.50;;;;;;7367944;19;20828;-81
2022/07/02 10:56:49;;;;;;;1.48;0.98;;;22.90;43.60;;;;;;7391337;19;20078;-82
2022/07/02 10:59:28;;;;;;;1.95;0.93;;;23.00;43.50;;;;;;7367793;19;20018;-81
2022/07/02 11:02:05;;;;;;;2.08;0.80;;;23.00;43.60;;;;;;7369270;19;20018;-83
2022/07/02 11:04:38;;;;;;;1.95;0.80;;;23.10;42.90;;;;;;7369339;19;20018;-82
2022/07/02 11:07:12;;;;;;;5.05;0.93;;;23.20;42.10;;;;;;7367249;19;20038;-81
2022/07/02 11:09:50;;;;;;;3.35;0.70;;;23.20;42.30;;;;;;7369287;19;20022;-81
2022/07/02 11:12:24;;;;;;;1.73;0.80;;;23.20;42.20;;;;;;7369882;19;20038;-81
2022/07/02 11:14:58;;;;;;;2.78;1.00;;;23.30;42.20;;;;;;7391077;19;20569;-81
2022/07/02 11:17:28;;;;;;;2.45;0.90;;;23.40;42.70;;;;;;7370256;19;20034;-83
2022/07/02 11:19:59;;;;;;;1.90;0.82;;;23.40;41.20;;;;;;7369053;19;20023;-83
2022/07/02 11:22:33;;;;;;;1.80;0.98;;;23.40;40.80;;;;;;7368074;19;20858;-81
2022/07/02 11:25:02;;;;;;;2.50;0.95;;;23.40;40.90;;;;;;7367893;19;20081;-81
2022/07/02 11:27:32;;;;;;;3.28;1.55;;;23.50;42.20;;;;;;7370753;19;20035;-80
2022/07/02 11:30:03;;;;;;;4.28;1.30;;;23.50;41.90;;;;;;7384125;19;20036;-81
2022/07/02 11:32:39;;;;;;;5.78;0.75;;;23.60;42.00;;;;;;7390248;19;20043;-82
2022/07/02 11:35:13;;;;;;;3.92;0.70;;;23.70;42.10;;;;;;7368792;19;20021;-81
2022/07/02 11:37:49;;;;;;;2.42;0.63;;;23.80;41.70;;;;;;7368791;19;20087;-83
2022/07/02 11:40:29;;;;;;;2.30;0.73;;;23.80;40.70;;;;;;7369787;19;20015;-82
2022/07/02 11:43:01;;;;;;;1.40;0.63;;;23.90;40.70;;;;;;7365247;19;20020;-83
2022/07/02 11:45:30;;;;;;;2.40;0.50;;;23.90;40.90;;;;;;7368423;19;20081;-82
2022/07/02 11:47:59;;;;;;;3.75;0.70;;;23.90;40.00;;;;;;7390741;19;20006;-83
2022/07/02 11:50:36;;;;;;;1.52;0.50;;;23.90;40.50;;;;;;7369880;19;20448;-82
2022/07/02 11:53:06;;;;;;;2.00;0.70;;;23.90;40.20;;;;;;7369330;19;20522;-83
2022/07/02 11:55:37;;;;;;;2.80;1.30;;;23.90;40.50;;;;;;7369598;19;20402;-82
2022/07/02 11:58:07;;;;;;;3.60;2.25;;;23.90;40.60;;;;;;7366461;19;20021;-83
2022/07/02 12:00:39;;;;;;;3.25;1.80;;;24.00;41.30;;;;;;7366419;19;20102;-82
2022/07/02 12:03:14;;;;;;;0.95;0.60;;;24.10;41.10;;;;;;7367122;19;20023;-81
2022/07/02 12:05:58;;;;;;;2.92;0.60;;;24.10;40.20;;;;;;7390940;19;20312;-81
2022/07/02 12:08:29;;;;;;;1.90;0.68;;;24.10;40.70;;;;;;7367529;19;20015;-83
2022/07/02 12:11:01;;;;;;;2.35;0.70;;;24.20;40.40;;;;;;7365348;19;20014;-82
2022/07/02 12:13:31;;;;;;;5.35;0.90;;;24.20;40.00;;;;;;7368741;19;20022;-81
2022/07/02 12:16:06;;;;;;;1.42;0.60;;;24.30;40.70;;;;;;7375686;19;20062;-82
2022/07/02 12:18:45;;;;;;;0.70;0.50;;;24.40;41.40;;;;;;7372661;19;20039;-82
2022/07/02 12:21:22;;;;;;;1.52;0.68;;;24.50;41.40;;;;;;7370014;19;20111;-82
2022/07/02 12:23:55;;;;;;;3.60;0.68;;;24.60;40.90;;;;;;7398328;19;20626;-82
2022/07/02 12:26:41;;;;;;;2.00;0.50;;;24.70;41.20;;;;;;7374477;19;20028;-82
2022/07/02 12:32:13;;;;;;;;;;;24.90;40.60;;;;;;7374205;19;20585;-82
2022/07/02 12:34:53;;;;;;;1.85;0.75;;;25.00;39.80;;;;;;7379924;19;19930;-85
2022/07/02 12:37:28;;;;;;;2.58;0.60;;;25.00;39.60;;;;;;7379600;19;20030;-85
2022/07/02 12:40:09;;;;;;;3.35;0.80;;;25.00;39.70;;;;;;7376876;19;20011;-82
2022/07/02 12:42:48;;;;;;;5.45;0.80;;;25.00;40.00;;;;;;7380878;19;20018;-81
2022/07/02 12:45:25;;;;;;;2.30;0.65;;;25.00;39.10;;;;;;7374994;19;20435;-83
2022/07/02 12:48:02;;;;;;;3.10;0.75;;;25.00;40.00;;;;;;7393824;19;20039;-81
2022/07/02 12:50:34;;;;;;;0.68;0.60;;;25.10;40.80;;;;;;7373267;19;20039;-81
2022/07/02 12:53:10;;;;;;;3.28;0.90;;;25.20;40.20;;;;;;7371288;19;20014;-81
2022/07/02 12:55:43;;;;;;;1.70;0.65;;;25.10;39.20;;;;;;7374269;19;20011;-81
2022/07/02 12:58:18;;;;;;;1.27;0.90;;;25.10;38.80;;;;;;7369999;19;20462;-79
2022/07/02 13:00:47;;;;;;;1.95;0.60;;;25.20;39.50;;;;;;7371710;19;20006;-80
2022/07/02 13:03:39;;;;;;;1.20;0.70;;;25.30;39.40;;;;;;7370985;19;20585;-81
2022/07/02 13:06:38;;;;;;;1.33;0.65;;;25.30;38.70;;;;;;7364310;19;20514;-78
2022/07/02 13:09:39;;;;;;;1.75;0.90;;;25.30;38.80;;;;;;7368362;19;20482;-79
2022/07/02 13:15:54;;;;;;;2.58;0.77;;;25.60;40.00;;;;;;7268674;19;2004630;-79
2022/07/02 13:18:54;;;;;;;1.38;0.60;;;25.70;39.90;;;;;;7347148;19;20094;-78
2022/07/02 13:34:29;;;;;;;0.88;0.50;;;25.50;38.00;;;;;;7298422;19;20010;-79